Aérodrome :
LOGIN :

S'inscrire | Disclaimer

   EN    FR    IT 

 










Légende :    VFR   VFR Marginal   IFR   IFR Intensif   IFR Très Intensif
Visi : 
Plafond : 
>= 8 km
>= 3000ft
5 à 8 km
1000 à 3000 ft
1500m à 5 km
500 à 1000 ft
800 à 1500m
200 à 500 ft
< 800m
< 200 ft
Symboles :   Orages  Brouillard  Fortes neiges  Fortes précipitations  Vent > 20 kt
SIGMETs :   Divers  Orages  Givrage  Turbulence  Onde Orograph.  Cendres Volcan.







- Altitude de l'aérodrome : 1325 ft
- Code IATA : EBU
- Voir les cartes d'approche


LFMH - St-Etienne Boutheon

DERNIER METAR :
  • 160730Z AUTO VRB02KT 9999 SCT009 13/10 Q1024 TEMPO BKN009

METARs EXPIRÉS :
  • 160700Z AUTO VRB02KT 9000 OVC006 12/11 Q1024 NOSIG
  • 160630Z AUTO VRB01KT 9999 SCT004 11/10 Q1023 TEMPO BKN009
  • 160600Z AUTO VRB02KT 2000 BR BKN002 10/10 Q1023 TEMPO VV/// BECMG 9999 NSW
  • 160530Z AUTO VRB02KT 8000 SCT003 BKN008 10/09 Q1023 TEMPO 0400 FG VV///
  • 160500Z AUTO VRB02KT 3100 BR VV/// 10/10 Q1023 TEMPO 0400 FG

TAF TAF LFMH
Valide du 16 à 03h jusqu'au 17 à 03h UTC


160200Z 1603/1703 VRB03KT 9999 SCT040
TEMPO 1603/1609 BKN009
PROB40
TEMPO 1603/1607 0400 FG VV///
BECMG 1608/1610 34007KT
ATIS : +33 4 77 36 17 51
Pas de NOTAMs connus pour ce terrain.



MET'MAP, la Météo Aéronautique d'un coup d'oeil ! - Copyright ORBIFLY Décembre 2007 - Disclaimer

ORBIFLY MET'MAP TEAM :

Programmation & Développement : Alexandra Zaïnal
Conception & Développement : Baudouin d'Aumeries
Co-Programmation & Développement : Marc-Olivier Méhu
Soutien technique & logistique : Manuel Goepfert

Contact : metmap@orbifly.com




SOURCES & CREDITS :

   NOAA